createdAt,value
2023-01-30T00:00:27.456Z,1.94
2023-01-30T00:02:28.815Z,1.94
2023-01-30T00:04:30.179Z,1.97
2023-01-30T00:06:31.599Z,1.97
2023-01-30T00:08:32.998Z,1.99
2023-01-30T00:10:34.342Z,2.02
2023-01-30T00:12:35.730Z,2.01
2023-01-30T00:14:37.149Z,2.04
2023-01-30T00:16:38.597Z,2.03
2023-01-30T00:18:44.897Z,2.06
2023-01-30T00:20:46.306Z,2.05
2023-01-30T00:23:00.213Z,2.08
2023-01-30T00:25:02.414Z,2.09
2023-01-30T00:27:03.907Z,2.12
2023-01-30T00:29:05.351Z,2.15
2023-01-30T00:31:07.427Z,2.16
2023-01-30T00:33:09.652Z,2.18
2023-01-30T00:35:11.046Z,2.20
2023-01-30T00:37:12.422Z,2.25
2023-01-30T00:39:13.810Z,2.27
2023-01-30T00:41:16.753Z,2.28
2023-01-30T00:43:38.334Z,2.35
2023-01-30T00:45:59.993Z,2.34
2023-01-30T00:48:01.659Z,2.36
2023-01-30T00:50:03.083Z,2.44
2023-01-30T00:52:05.803Z,2.48
2023-01-30T00:54:07.329Z,2.47
2023-01-30T00:56:08.712Z,2.50
2023-01-30T00:58:10.394Z,2.55
2023-01-30T01:00:12.395Z,2.55
2023-01-30T01:02:13.895Z,2.58
2023-01-30T01:04:15.296Z,2.62
2023-01-30T01:06:17.239Z,2.63
2023-01-30T01:08:18.651Z,2.64
2023-01-30T01:10:20.603Z,2.72
2023-01-30T01:12:21.961Z,2.71
2023-01-30T01:14:23.349Z,2.70
2023-01-30T01:16:26.727Z,2.72
2023-01-30T01:18:28.232Z,2.76
2023-01-30T01:20:29.581Z,2.78
2023-01-30T01:22:30.990Z,2.78
2023-01-30T01:24:32.381Z,2.81
2023-01-30T01:26:33.779Z,2.82
2023-01-30T01:28:35.327Z,2.84
2023-01-30T01:30:38.240Z,2.87
2023-01-30T01:32:39.631Z,2.93
2023-01-30T01:34:41.140Z,2.91
2023-01-30T01:36:53.235Z,2.98
2023-01-30T01:38:55.955Z,2.95
2023-01-30T01:41:03.326Z,2.97
2023-01-30T01:43:19.898Z,2.95
2023-01-30T01:45:25.048Z,2.96
2023-01-30T01:47:26.719Z,2.97
2023-01-30T01:49:32.340Z,3.01
2023-01-30T01:51:38.778Z,3.04
2023-01-30T01:53:49.030Z,3.05
2023-01-30T01:55:53.007Z,3.05
2023-01-30T01:58:03.034Z,3.06
2023-01-30T02:00:12.346Z,3.06
2023-01-30T02:02:14.596Z,3.09
2023-01-30T02:04:36.238Z,3.14
2023-01-30T02:06:42.007Z,3.13
2023-01-30T02:08:47.879Z,3.10
2023-01-30T02:10:58.381Z,3.16
2023-01-30T02:13:00.107Z,3.14
2023-01-30T02:15:02.697Z,3.17
2023-01-30T02:17:04.177Z,3.18
2023-01-30T02:19:25.677Z,3.20
2023-01-30T02:22:04.631Z,3.22
2023-01-30T02:24:30.231Z,3.24
2023-01-30T02:26:43.994Z,3.28
2023-01-30T02:29:10.098Z,3.31
2023-01-30T02:31:24.844Z,3.26
2023-01-30T02:33:42.428Z,3.26
2023-01-30T02:36:02.016Z,3.28
2023-01-30T02:38:18.636Z,3.34
2023-01-30T02:40:52.076Z,3.33
2023-01-30T02:43:00.681Z,3.34
2023-01-30T02:45:06.677Z,3.36
2023-01-30T02:47:14.417Z,3.36
2023-01-30T02:49:26.593Z,3.36
2023-01-30T02:51:31.539Z,3.39
2023-01-30T02:53:34.176Z,3.39
2023-01-30T02:55:35.698Z,3.42
2023-01-30T02:57:37.095Z,3.44
2023-01-30T02:59:45.287Z,3.46
2023-01-30T03:02:05.390Z,3.46
2023-01-30T03:04:09.566Z,3.48
2023-01-30T03:06:53.736Z,3.47
2023-01-30T03:09:10.530Z,3.46
2023-01-30T03:11:12.553Z,3.45
2023-01-30T03:13:35.960Z,3.46
2023-01-30T03:15:51.088Z,3.53
2023-01-30T03:17:53.232Z,3.55
2023-01-30T03:19:55.358Z,3.52
2023-01-30T03:21:56.742Z,3.51
2023-01-30T03:23:58.124Z,3.54
2023-01-30T03:26:03.313Z,3.57
2023-01-30T03:28:06.973Z,3.56
2023-01-30T03:30:09.040Z,3.64
2023-01-30T03:32:10.476Z,3.65
2023-01-30T03:34:11.832Z,3.65
2023-01-30T03:36:14.032Z,3.60
2023-01-30T03:38:16.448Z,3.61
2023-01-30T03:40:18.312Z,3.64
2023-01-30T03:42:19.693Z,3.64
2023-01-30T03:44:21.872Z,3.70
2023-01-30T03:46:23.756Z,3.68
2023-01-30T03:48:25.129Z,3.70
2023-01-30T03:50:26.510Z,3.72
2023-01-30T03:52:27.889Z,3.70
2023-01-30T03:54:29.282Z,3.67
2023-01-30T03:56:31.066Z,3.67
2023-01-30T03:58:32.443Z,3.69
2023-01-30T04:00:33.843Z,3.71
2023-01-30T04:02:35.294Z,3.72
2023-01-30T04:04:36.774Z,3.77
2023-01-30T04:06:38.133Z,3.76
2023-01-30T04:08:39.602Z,3.76
2023-01-30T04:10:40.970Z,3.77
2023-01-30T04:12:42.934Z,3.80
2023-01-30T04:14:44.422Z,3.77
2023-01-30T04:16:46.124Z,3.85
2023-01-30T04:18:47.698Z,3.86
2023-01-30T04:20:49.069Z,3.86
2023-01-30T04:22:50.549Z,3.86
2023-01-30T04:24:51.903Z,3.87
2023-01-30T04:26:53.319Z,3.91
2023-01-30T04:28:54.784Z,3.91
2023-01-30T04:30:56.346Z,3.91
2023-01-30T04:32:57.743Z,3.92
2023-01-30T04:34:59.101Z,3.95
2023-01-30T04:37:00.500Z,3.95
2023-01-30T04:39:01.865Z,3.96
2023-01-30T04:41:03.829Z,3.98
2023-01-30T04:43:05.210Z,4.01
2023-01-30T04:45:07.040Z,3.99
2023-01-30T04:47:08.452Z,3.98
2023-01-30T04:49:10.882Z,4.01
2023-01-30T04:51:12.286Z,4.01
2023-01-30T04:53:14.142Z,4.01
2023-01-30T04:55:15.785Z,4.04
2023-01-30T04:57:17.315Z,4.06
2023-01-30T04:59:18.725Z,4.08
2023-01-30T05:01:26.062Z,4.08
2023-01-30T05:03:27.439Z,4.07
2023-01-30T05:05:28.884Z,4.06
2023-01-30T05:07:30.274Z,4.07
2023-01-30T05:09:31.651Z,4.07
2023-01-30T05:11:33.824Z,4.08
2023-01-30T05:13:35.202Z,4.05
2023-01-30T05:15:36.593Z,4.07
2023-01-30T05:17:38.251Z,4.13
2023-01-30T05:19:39.753Z,4.14
2023-01-30T05:21:41.165Z,4.15
2023-01-30T05:23:43.056Z,4.16
2023-01-30T05:25:44.504Z,4.18
2023-01-30T05:27:45.927Z,4.18
2023-01-30T05:29:47.265Z,4.20
2023-01-30T05:31:48.730Z,4.25
2023-01-30T05:33:52.294Z,4.22
2023-01-30T05:35:53.753Z,4.21
2023-01-30T05:37:55.205Z,4.21
2023-01-30T05:39:56.573Z,4.23
2023-01-30T05:41:58.050Z,4.28
2023-01-30T05:43:59.441Z,4.27
2023-01-30T05:46:02.177Z,4.30
2023-01-30T05:48:03.768Z,4.29
2023-01-30T05:50:05.609Z,4.31
2023-01-30T05:52:06.984Z,4.33
2023-01-30T05:54:08.753Z,4.31
2023-01-30T05:56:10.118Z,4.32
2023-01-30T05:58:12.312Z,4.32
2023-01-30T06:00:14.395Z,4.33
2023-01-30T06:02:15.729Z,4.40
2023-01-30T06:04:17.087Z,4.41
2023-01-30T06:06:18.932Z,4.46
2023-01-30T06:08:20.275Z,4.43
2023-01-30T06:10:21.799Z,4.44
2023-01-30T06:12:23.366Z,4.42
2023-01-30T06:14:24.974Z,4.43
2023-01-30T06:16:26.556Z,4.42
2023-01-30T06:18:28.150Z,4.45
2023-01-30T06:20:29.610Z,4.46
2023-01-30T06:22:30.945Z,4.52
2023-01-30T06:24:32.399Z,4.52
2023-01-30T06:26:33.793Z,4.58
2023-01-30T06:28:36.158Z,4.60
2023-01-30T06:30:37.627Z,4.64
2023-01-30T06:32:39.035Z,4.63
2023-01-30T06:34:40.509Z,4.69
2023-01-30T06:36:41.946Z,4.72
2023-01-30T06:38:43.347Z,4.71
2023-01-30T06:40:47.291Z,4.73
2023-01-30T06:42:49.239Z,4.74
2023-01-30T06:44:50.613Z,4.77
2023-01-30T06:46:52.659Z,4.82
2023-01-30T06:48:54.071Z,4.81
2023-01-30T06:50:55.499Z,4.83
2023-01-30T06:52:58.622Z,4.86
2023-01-30T06:55:00.030Z,4.86
2023-01-30T06:57:01.407Z,4.93
2023-01-30T06:59:02.866Z,4.95
2023-01-30T07:01:04.353Z,4.96
2023-01-30T07:03:09.902Z,4.95
2023-01-30T07:05:11.497Z,5.01
2023-01-30T07:07:12.904Z,5.00
2023-01-30T07:09:14.358Z,5.03
2023-01-30T07:11:15.779Z,5.05
2023-01-30T07:13:17.248Z,5.08
2023-01-30T07:15:18.926Z,5.06
2023-01-30T07:17:21.193Z,5.04
2023-01-30T07:19:22.569Z,5.09
2023-01-30T07:21:27.288Z,5.11
2023-01-30T07:23:28.649Z,5.13
2023-01-30T07:25:30.662Z,5.14
2023-01-30T07:27:32.138Z,5.13
2023-01-30T07:29:35.669Z,5.15
2023-01-30T07:31:37.052Z,5.13
2023-01-30T07:33:38.486Z,5.15
2023-01-30T07:35:39.873Z,5.17
2023-01-30T07:37:41.221Z,5.17
2023-01-30T07:39:42.578Z,5.20
2023-01-30T07:41:44.025Z,5.22
2023-01-30T07:43:45.388Z,5.24
2023-01-30T07:45:48.166Z,5.26
2023-01-30T07:47:49.517Z,5.28
2023-01-30T07:49:50.968Z,5.29
2023-01-30T07:51:52.489Z,5.28
2023-01-30T07:53:53.867Z,5.29
2023-01-30T07:55:55.263Z,5.29
2023-01-30T07:57:56.637Z,5.30
2023-01-30T07:59:57.980Z,5.35
2023-01-30T08:01:59.358Z,5.35
2023-01-30T08:04:00.734Z,5.34
2023-01-30T08:06:02.098Z,5.31
2023-01-30T08:08:03.514Z,5.31
2023-01-30T08:10:05.684Z,5.34
2023-01-30T08:12:07.297Z,5.45
2023-01-30T08:14:08.690Z,5.42
2023-01-30T08:16:10.131Z,5.34
2023-01-30T08:18:11.568Z,5.33
2023-01-30T08:20:16.749Z,5.33
2023-01-30T08:22:18.727Z,5.49
2023-01-30T08:24:20.341Z,5.55
2023-01-30T08:26:21.873Z,5.67
2023-01-30T08:28:23.628Z,5.62
2023-01-30T08:30:25.096Z,5.54
2023-01-30T08:32:26.463Z,5.56
2023-01-30T08:34:28.021Z,5.53
2023-01-30T08:36:29.350Z,5.49
2023-01-30T08:38:30.740Z,5.52
2023-01-30T08:40:32.069Z,5.57
2023-01-30T08:42:33.522Z,5.57
2023-01-30T08:44:34.939Z,5.64
2023-01-30T08:46:36.716Z,5.59
2023-01-30T08:48:49.507Z,5.65
2023-01-30T08:50:52.123Z,5.60
2023-01-30T08:52:53.481Z,5.57
2023-01-30T08:54:54.845Z,5.58
2023-01-30T08:56:56.210Z,5.59
2023-01-30T08:58:57.558Z,5.57
2023-01-30T09:00:58.981Z,5.63
2023-01-30T09:03:01.655Z,5.64
2023-01-30T09:05:03.900Z,5.57
2023-01-30T09:07:05.285Z,5.54
2023-01-30T09:09:06.641Z,5.60
2023-01-30T09:11:08.247Z,5.58
2023-01-30T09:13:10.156Z,5.55
2023-01-30T09:15:11.516Z,5.54
2023-01-30T09:17:13.739Z,5.67
2023-01-30T09:19:15.095Z,5.69
2023-01-30T09:21:16.637Z,5.62
2023-01-30T09:23:18.681Z,5.62
2023-01-30T09:25:20.328Z,5.59
2023-01-30T09:27:21.717Z,5.63
2023-01-30T09:29:23.763Z,5.60
2023-01-30T09:31:25.261Z,5.63
2023-01-30T09:33:27.429Z,5.63
2023-01-30T09:35:28.891Z,5.67
2023-01-30T09:37:30.285Z,5.64
2023-01-30T09:39:31.749Z,5.68
2023-01-30T09:41:59.648Z,5.75
2023-01-30T09:44:22.741Z,5.69
2023-01-30T09:46:50.874Z,5.80
2023-01-30T09:49:05.163Z,5.94
2023-01-30T09:51:13.492Z,5.92
2023-01-30T09:53:15.029Z,5.87
2023-01-30T09:55:23.002Z,5.73
2023-01-30T09:57:26.051Z,5.75
2023-01-30T09:59:41.703Z,5.75
2023-01-30T10:02:01.064Z,5.68
2023-01-30T10:04:18.587Z,5.69
2023-01-30T10:06:20.297Z,5.66
2023-01-30T10:08:30.716Z,5.67
2023-01-30T10:11:10.059Z,5.56
2023-01-30T10:13:21.832Z,5.61
2023-01-30T10:15:49.621Z,5.52
2023-01-30T10:18:21.948Z,5.60
2023-01-30T10:20:35.388Z,5.66
2023-01-30T10:23:02.199Z,5.81
2023-01-30T10:25:25.483Z,5.83
2023-01-30T10:27:30.525Z,5.92
2023-01-30T10:29:38.993Z,5.97
2023-01-30T10:31:47.113Z,5.94
2023-01-30T10:34:09.523Z,5.94
2023-01-30T10:36:15.049Z,5.93
2023-01-30T10:38:26.166Z,5.97
2023-01-30T10:40:58.076Z,6.00
2023-01-30T10:43:18.150Z,6.00
2023-01-30T10:45:27.089Z,5.89
2023-01-30T10:47:47.104Z,5.88
2023-01-30T10:49:56.001Z,5.87
2023-01-30T10:52:32.728Z,5.71
2023-01-30T10:54:37.770Z,5.71
2023-01-30T10:56:48.687Z,5.75
2023-01-30T10:59:28.010Z,5.71
2023-01-30T11:01:40.458Z,5.73
2023-01-30T11:03:48.260Z,5.73
2023-01-30T11:05:52.730Z,5.70
2023-01-30T11:07:54.115Z,5.71
2023-01-30T11:09:58.462Z,5.71
2023-01-30T11:12:00.269Z,5.69
2023-01-30T11:14:12.113Z,5.83
2023-01-30T11:16:13.760Z,5.88
2023-01-30T11:20:47.252Z,6.05
2023-01-30T11:23:04.157Z,5.96
2023-01-30T11:25:17.221Z,5.92
2023-01-30T11:27:27.955Z,5.96
2023-01-30T11:29:32.607Z,5.95
2023-01-30T11:31:41.337Z,5.91
2023-01-30T11:36:25.956Z,5.78
2023-01-30T11:38:30.735Z,5.77
2023-01-30T11:40:38.708Z,5.84
2023-01-30T11:42:44.527Z,5.86
2023-01-30T11:44:45.936Z,5.89
2023-01-30T11:46:47.415Z,5.94
2023-01-30T11:49:02.693Z,6.08
2023-01-30T11:51:16.634Z,6.03
2023-01-30T11:53:26.626Z,6.03
2023-01-30T11:55:28.376Z,6.01
2023-01-30T11:57:29.835Z,6.06
2023-01-30T11:59:55.809Z,6.00
2023-01-30T12:02:19.542Z,5.97
2023-01-30T12:04:22.570Z,6.00
2023-01-30T12:06:36.234Z,6.19
2023-01-30T12:08:42.365Z,6.32
2023-01-30T12:10:45.811Z,6.31
2023-01-30T12:12:51.857Z,6.07
2023-01-30T12:15:00.701Z,6.13
2023-01-30T12:17:21.549Z,6.31
2023-01-30T12:19:47.089Z,6.28
2023-01-30T12:22:01.682Z,6.24
2023-01-30T12:24:32.231Z,6.15
2023-01-30T12:26:47.733Z,6.17
2023-01-30T12:29:23.117Z,6.22
2023-01-30T12:31:32.598Z,6.35
2023-01-30T12:33:35.518Z,6.37
2023-01-30T12:35:58.295Z,6.44
2023-01-30T12:38:15.333Z,6.70
2023-01-30T12:40:38.567Z,6.48
2023-01-30T12:42:51.632Z,6.49
2023-01-30T12:45:14.714Z,6.50
2023-01-30T12:47:32.999Z,6.44
2023-01-30T12:49:37.027Z,6.37
2023-01-30T12:51:56.332Z,6.31
2023-01-30T12:53:57.701Z,6.46
2023-01-30T12:56:34.295Z,6.68
2023-01-30T12:58:38.810Z,6.76
2023-01-30T13:01:07.638Z,6.84
2023-01-30T13:03:21.356Z,6.84
2023-01-30T13:05:27.168Z,6.72
2023-01-30T13:07:50.591Z,6.62
2023-01-30T13:10:04.130Z,6.83
2023-01-30T13:12:34.396Z,6.90
2023-01-30T13:14:53.773Z,6.86
2023-01-30T13:17:14.443Z,6.77
2023-01-30T13:19:41.097Z,6.62
2023-01-30T13:21:55.094Z,6.66
2023-01-30T13:23:59.450Z,6.74
2023-01-30T13:26:06.249Z,6.70
2023-01-30T13:28:21.279Z,6.84
2023-01-30T13:30:25.434Z,6.89
2023-01-30T13:32:42.635Z,6.85
2023-01-30T13:34:47.852Z,6.84
2023-01-30T13:37:13.304Z,6.75
2023-01-30T13:39:29.922Z,6.76
2023-01-30T13:41:37.324Z,6.90
2023-01-30T13:43:43.728Z,6.98
2023-01-30T13:45:48.118Z,7.00
2023-01-30T13:47:56.112Z,7.04
2023-01-30T13:50:12.463Z,6.92
2023-01-30T13:52:45.107Z,7.12
2023-01-30T13:54:52.095Z,7.06
2023-01-30T13:56:56.237Z,7.03
2023-01-30T13:59:21.599Z,7.20
2023-01-30T14:01:24.384Z,7.21
2023-01-30T14:03:29.019Z,7.11
2023-01-30T14:05:52.658Z,7.03
2023-01-30T14:07:54.180Z,7.24
2023-01-30T14:10:10.571Z,7.17
2023-01-30T14:12:20.063Z,7.09
2023-01-30T14:14:40.547Z,7.06
2023-01-30T14:16:54.304Z,7.06
2023-01-30T14:18:55.780Z,6.99
2023-01-30T14:21:24.409Z,6.97
2023-01-30T14:23:33.492Z,7.05
2023-01-30T14:25:44.167Z,6.90
2023-01-30T14:27:45.572Z,6.89
2023-01-30T14:29:49.335Z,6.91
2023-01-30T14:31:51.569Z,6.85
2023-01-30T14:33:53.029Z,6.80
2023-01-30T14:35:54.337Z,6.78
2023-01-30T14:38:11.214Z,6.83
2023-01-30T14:40:21.695Z,6.93
2023-01-30T14:42:26.493Z,6.97
2023-01-30T14:45:01.963Z,6.96
2023-01-30T14:47:33.687Z,6.88
2023-01-30T14:49:43.762Z,6.90
2023-01-30T14:51:47.844Z,6.80
2023-01-30T14:53:54.142Z,6.88
2023-01-30T14:56:03.906Z,6.91
2023-01-30T14:58:05.433Z,6.79
2023-01-30T15:00:19.757Z,6.74
2023-01-30T15:02:26.356Z,6.77
2023-01-30T15:04:40.470Z,6.65
2023-01-30T15:06:41.857Z,6.62
2023-01-30T15:08:44.334Z,6.59
2023-01-30T15:11:08.163Z,6.48
2023-01-30T15:13:24.735Z,6.48
2023-01-30T15:16:04.245Z,6.52
2023-01-30T15:18:08.700Z,6.48
2023-01-30T15:20:28.020Z,6.41
2023-01-30T15:22:37.872Z,6.41
2023-01-30T15:25:15.932Z,6.41
2023-01-30T15:27:31.717Z,6.40
2023-01-30T15:29:51.463Z,6.50
2023-01-30T15:32:00.180Z,6.39
2023-01-30T15:34:01.747Z,6.27
2023-01-30T15:36:22.806Z,6.32
2023-01-30T15:38:30.360Z,6.35
2023-01-30T15:40:32.429Z,6.39
2023-01-30T15:42:33.903Z,6.28
2023-01-30T15:44:38.295Z,6.22
2023-01-30T15:46:54.271Z,6.15
2023-01-30T15:49:09.530Z,6.17
2023-01-30T15:51:13.173Z,6.08
2023-01-30T15:53:16.047Z,5.96
2023-01-30T15:55:31.178Z,6.00
2023-01-30T15:57:36.238Z,5.99
2023-01-30T15:59:40.051Z,5.98
2023-01-30T16:01:41.527Z,5.95
2023-01-30T16:03:44.042Z,5.93
2023-01-30T16:05:55.209Z,5.92
2023-01-30T16:07:58.861Z,5.84
2023-01-30T16:10:08.279Z,5.88
2023-01-30T16:12:23.982Z,5.88
2023-01-30T16:14:25.419Z,5.88
2023-01-30T16:16:28.032Z,5.81
2023-01-30T16:18:42.368Z,5.84
2023-01-30T16:21:01.969Z,5.87
2023-01-30T16:23:04.026Z,5.88
2023-01-30T16:25:06.060Z,5.86
2023-01-30T16:27:16.109Z,5.88
2023-01-30T16:29:24.082Z,5.87
2023-01-30T16:31:27.343Z,5.86
2023-01-30T16:33:35.743Z,5.86
2023-01-30T16:35:44.471Z,5.82
2023-01-30T16:37:46.093Z,5.85
2023-01-30T16:40:13.982Z,5.83
2023-01-30T16:42:29.237Z,5.84
2023-01-30T16:44:31.968Z,5.82
2023-01-30T16:46:42.228Z,5.85
2023-01-30T16:48:43.954Z,5.83
2023-01-30T16:50:47.537Z,5.85
2023-01-30T16:52:54.421Z,5.89
2023-01-30T16:54:59.764Z,5.94
2023-01-30T16:57:02.452Z,5.83
2023-01-30T16:59:04.113Z,5.86
2023-01-30T17:01:08.406Z,5.85
2023-01-30T17:03:22.492Z,5.87
2023-01-30T17:05:26.719Z,5.83
2023-01-30T17:07:34.391Z,5.80
2023-01-30T17:09:46.750Z,5.80
2023-01-30T17:11:48.564Z,5.81
2023-01-30T17:14:08.350Z,5.81
2023-01-30T17:16:21.937Z,5.80
2023-01-30T17:18:23.346Z,5.83
2023-01-30T17:20:37.197Z,5.79
2023-01-30T17:22:42.295Z,5.73
2023-01-30T17:24:43.694Z,5.70
2023-01-30T17:26:48.671Z,5.80
2023-01-30T17:28:50.057Z,5.72
2023-01-30T17:30:51.697Z,5.70
2023-01-30T17:32:53.129Z,5.64
2023-01-30T17:34:55.925Z,5.68
2023-01-30T17:36:57.430Z,5.73
2023-01-30T17:38:59.324Z,5.76
2023-01-30T17:41:02.533Z,5.81
2023-01-30T17:43:04.276Z,5.68
2023-01-30T17:45:06.167Z,5.62
2023-01-30T17:47:10.975Z,5.66
2023-01-30T17:49:24.812Z,5.56
2023-01-30T17:51:26.233Z,5.57
2023-01-30T17:53:27.618Z,5.46
2023-01-30T17:55:29.012Z,5.43
2023-01-30T17:57:30.419Z,5.35
2023-01-30T17:59:32.622Z,5.32
2023-01-30T18:01:34.178Z,5.31
2023-01-30T18:03:35.523Z,5.29
2023-01-30T18:05:36.981Z,5.26
2023-01-30T18:07:39.965Z,5.18
2023-01-30T18:09:41.428Z,5.24
2023-01-30T18:11:42.849Z,5.18
2023-01-30T18:13:46.895Z,5.09
2023-01-30T18:15:48.388Z,5.07
2023-01-30T18:17:53.240Z,5.00
2023-01-30T18:19:55.258Z,5.01
2023-01-30T18:21:58.312Z,5.04
2023-01-30T18:24:00.548Z,5.17
2023-01-30T18:26:01.906Z,5.23
2023-01-30T18:28:03.497Z,5.24
2023-01-30T18:30:05.408Z,5.21
2023-01-30T18:32:06.882Z,5.22
2023-01-30T18:34:11.006Z,5.18
2023-01-30T18:36:15.461Z,5.25
2023-01-30T18:38:16.819Z,5.21
2023-01-30T18:40:19.820Z,5.23
2023-01-30T18:42:21.557Z,5.21
2023-01-30T18:44:22.915Z,5.28
2023-01-30T18:46:25.586Z,5.27
2023-01-30T18:48:27.013Z,5.26
2023-01-30T18:50:28.434Z,5.21
2023-01-30T18:52:30.115Z,5.20
2023-01-30T18:54:31.554Z,5.15
2023-01-30T18:56:34.364Z,5.20
2023-01-30T18:58:36.039Z,5.23
2023-01-30T19:00:37.455Z,5.23
2023-01-30T19:02:38.882Z,5.23
2023-01-30T19:04:40.682Z,5.25
2023-01-30T19:06:43.276Z,5.27
2023-01-30T19:08:45.301Z,5.30
2023-01-30T19:10:46.720Z,5.25
2023-01-30T19:13:06.505Z,5.23
2023-01-30T19:15:08.147Z,5.30
2023-01-30T19:17:09.580Z,5.24
2023-01-30T19:19:11.122Z,5.26
2023-01-30T19:21:12.844Z,5.28
2023-01-30T19:23:14.207Z,5.22
2023-01-30T19:25:15.625Z,5.16
2023-01-30T19:27:17.136Z,5.13
2023-01-30T19:29:18.604Z,5.20
2023-01-30T19:31:21.884Z,5.23
2023-01-30T19:33:24.135Z,5.13
2023-01-30T19:35:25.526Z,5.18
2023-01-30T19:37:26.901Z,5.02
2023-01-30T19:39:28.254Z,4.99
2023-01-30T19:41:31.858Z,5.00
2023-01-30T19:43:33.267Z,4.99
2023-01-30T19:45:34.689Z,4.88
2023-01-30T19:47:36.058Z,4.85
2023-01-30T19:49:37.539Z,4.83
2023-01-30T19:51:39.007Z,4.75
2023-01-30T19:53:45.069Z,4.61
2023-01-30T19:55:50.871Z,4.59
2023-01-30T19:57:52.515Z,4.49
2023-01-30T19:59:53.938Z,4.46
2023-01-30T20:01:55.412Z,4.40
2023-01-30T20:03:57.015Z,4.39
2023-01-30T20:06:08.470Z,4.34
2023-01-30T20:08:21.789Z,4.29
2023-01-30T20:10:31.198Z,4.24
2023-01-30T20:12:34.811Z,4.18
2023-01-30T20:14:36.193Z,4.22
2023-01-30T20:16:37.980Z,4.18
2023-01-30T20:18:40.411Z,4.21
2023-01-30T20:20:41.760Z,4.20
2023-01-30T20:22:44.128Z,4.18
2023-01-30T20:24:45.527Z,4.15
2023-01-30T20:26:48.511Z,4.12
2023-01-30T20:28:50.616Z,4.18
2023-01-30T20:30:52.044Z,4.19
2023-01-30T20:32:54.793Z,4.19
2023-01-30T20:34:56.234Z,4.14
2023-01-30T20:36:59.696Z,4.19
2023-01-30T20:39:04.054Z,4.19
2023-01-30T20:41:09.460Z,4.12
2023-01-30T20:43:10.842Z,4.12
2023-01-30T20:45:12.217Z,4.05
2023-01-30T20:47:13.587Z,4.00
2023-01-30T20:49:22.352Z,4.00
2023-01-30T20:51:26.463Z,3.93
2023-01-30T20:53:27.843Z,4.00
2023-01-30T20:55:29.217Z,4.06
2023-01-30T20:57:30.601Z,4.09
2023-01-30T20:59:32.046Z,4.07
2023-01-30T21:01:34.311Z,4.09
2023-01-30T21:03:35.922Z,4.01
2023-01-30T21:05:37.290Z,4.02
2023-01-30T21:07:39.084Z,3.97
2023-01-30T21:09:40.537Z,3.90
2023-01-30T21:11:42.788Z,3.93
2023-01-30T21:13:44.465Z,3.93
2023-01-30T21:15:45.853Z,3.92
2023-01-30T21:17:47.524Z,3.91
2023-01-30T21:19:48.885Z,3.98
2023-01-30T21:21:54.007Z,4.01
2023-01-30T21:23:58.778Z,4.01
2023-01-30T21:26:05.506Z,4.08
2023-01-30T21:28:06.911Z,4.05
2023-01-30T21:30:08.981Z,4.07
2023-01-30T21:32:10.391Z,4.11
2023-01-30T21:34:12.564Z,4.14
2023-01-30T21:36:14.650Z,4.14
2023-01-30T21:38:35.604Z,4.12
2023-01-30T21:40:55.325Z,4.22
2023-01-30T21:43:14.477Z,4.26
2023-01-30T21:45:15.975Z,4.20
2023-01-30T21:47:17.320Z,4.15
2023-01-30T21:49:19.582Z,4.16
2023-01-30T21:51:22.765Z,4.18
2023-01-30T21:53:24.325Z,4.17
2023-01-30T21:55:25.855Z,4.19
2023-01-30T21:57:27.238Z,4.21
2023-01-30T21:59:28.687Z,4.18
2023-01-30T22:01:30.176Z,4.17
2023-01-30T22:03:31.656Z,4.17
2023-01-30T22:05:36.505Z,4.16
2023-01-30T22:07:38.668Z,4.22
2023-01-30T22:09:40.095Z,4.18
2023-01-30T22:11:41.748Z,4.23
2023-01-30T22:13:43.355Z,4.18
2023-01-30T22:15:44.719Z,4.23
2023-01-30T22:17:47.774Z,4.23
2023-01-30T22:19:49.188Z,4.23
2023-01-30T22:21:50.589Z,4.21
2023-01-30T22:23:53.470Z,4.23
2023-01-30T22:25:54.902Z,4.21
2023-01-30T22:27:56.314Z,4.23
2023-01-30T22:29:57.704Z,4.24
2023-01-30T22:31:59.149Z,4.23
2023-01-30T22:34:01.604Z,4.23
2023-01-30T22:36:06.355Z,4.22
2023-01-30T22:38:07.714Z,4.24
2023-01-30T22:40:09.851Z,4.25
2023-01-30T22:42:11.465Z,4.22
2023-01-30T22:44:12.900Z,4.23
2023-01-30T22:46:16.030Z,4.23
2023-01-30T22:48:17.470Z,4.23
2023-01-30T22:50:18.854Z,4.16
2023-01-30T22:52:20.236Z,4.17
2023-01-30T22:54:23.401Z,4.18
2023-01-30T22:56:28.734Z,4.20
2023-01-30T22:58:30.689Z,4.16
2023-01-30T23:00:32.069Z,4.16
2023-01-30T23:02:33.646Z,4.15
2023-01-30T23:04:35.008Z,4.18
2023-01-30T23:06:36.911Z,4.18
2023-01-30T23:08:40.533Z,4.19
2023-01-30T23:10:41.948Z,4.15
2023-01-30T23:13:01.560Z,4.14
2023-01-30T23:15:02.919Z,4.08
2023-01-30T23:17:25.322Z,4.16
2023-01-30T23:19:26.702Z,4.16
2023-01-30T23:21:31.609Z,4.13
2023-01-30T23:23:32.982Z,4.09
2023-01-30T23:25:37.789Z,4.11
2023-01-30T23:27:39.173Z,4.10
2023-01-30T23:29:40.548Z,4.02
2023-01-30T23:31:44.211Z,4.05
2023-01-30T23:33:46.106Z,4.02
2023-01-30T23:35:47.444Z,4.04
2023-01-30T23:38:07.242Z,4.02
2023-01-30T23:40:09.439Z,4.04
2023-01-30T23:42:10.793Z,4.01
2023-01-30T23:44:12.205Z,4.00
2023-01-30T23:46:16.471Z,3.99
2023-01-30T23:48:17.896Z,3.98
2023-01-30T23:50:19.255Z,3.96
2023-01-30T23:52:20.617Z,3.95
2023-01-30T23:54:22.017Z,3.95
2023-01-30T23:56:27.202Z,4.00
2023-01-30T23:58:29.980Z,3.97
